sensor_id;sensor_type;location;lat;lon;timestamp;P1;durP1;ratioP1;P2;durP2;ratioP2
23490;SDS011;14683;50.038;8.078;2022-07-29T06:02:36;13.10;;;3.00;;
23490;SDS011;14683;50.038;8.078;2022-07-29T06:05:02;6.53;;;3.10;;
23490;SDS011;14683;50.038;8.078;2022-07-29T06:07:29;4.20;;;2.40;;
23490;SDS011;14683;50.038;8.078;2022-07-29T06:09:56;4.25;;;2.60;;
23490;SDS011;14683;50.038;8.078;2022-07-29T06:12:22;5.60;;;2.50;;
23490;SDS011;14683;50.038;8.078;2022-07-29T06:14:48;6.00;;;2.78;;
23490;SDS011;14683;50.038;8.078;2022-07-29T06:17:15;3.65;;;2.70;;
23490;SDS011;14683;50.038;8.078;2022-07-29T06:19:41;4.70;;;2.55;;
23490;SDS011;14683;50.038;8.078;2022-07-29T06:22:07;4.60;;;2.72;;
23490;SDS011;14683;50.038;8.078;2022-07-29T06:24:34;8.65;;;2.90;;
23490;SDS011;14683;50.038;8.078;2022-07-29T06:27:02;4.28;;;2.22;;
23490;SDS011;14683;50.038;8.078;2022-07-29T06:29:28;8.88;;;2.65;;
23490;SDS011;14683;50.038;8.078;2022-07-29T06:31:54;3.78;;;2.40;;
23490;SDS011;14683;50.038;8.078;2022-07-29T06:34:20;4.57;;;2.35;;
23490;SDS011;14683;50.038;8.078;2022-07-29T06:36:46;5.57;;;2.88;;
23490;SDS011;14683;50.038;8.078;2022-07-29T06:39:12;5.32;;;2.42;;
23490;SDS011;14683;50.038;8.078;2022-07-29T06:41:39;4.07;;;2.70;;
23490;SDS011;14683;50.038;8.078;2022-07-29T06:44:08;5.90;;;2.35;;
23490;SDS011;14683;50.038;8.078;2022-07-29T06:46:35;8.90;;;2.78;;
23490;SDS011;14683;50.038;8.078;2022-07-29T06:49:01;4.28;;;2.35;;
23490;SDS011;14683;50.038;8.078;2022-07-29T06:51:27;5.72;;;2.22;;
23490;SDS011;14683;50.038;8.078;2022-07-29T06:56:19;4.85;;;2.30;;
23490;SDS011;14683;50.038;8.078;2022-07-29T06:58:45;3.45;;;2.40;;
23490;SDS011;14683;50.038;8.078;2022-07-29T07:03:37;5.20;;;2.40;;
23490;SDS011;14683;50.038;8.078;2022-07-29T07:06:03;2.97;;;2.42;;
23490;SDS011;14683;50.038;8.078;2022-07-29T07:08:30;5.45;;;2.40;;
23490;SDS011;14683;50.038;8.078;2022-07-29T07:10:56;2.78;;;2.40;;
23490;SDS011;14683;50.038;8.078;2022-07-29T07:13:22;3.08;;;2.25;;
23490;SDS011;14683;50.038;8.078;2022-07-29T07:15:49;3.45;;;2.33;;
23490;SDS011;14683;50.038;8.078;2022-07-29T07:18:16;2.88;;;2.00;;
23490;SDS011;14683;50.038;8.078;2022-07-29T07:20:42;3.50;;;2.13;;
23490;SDS011;14683;50.038;8.078;2022-07-29T07:23:08;4.30;;;2.28;;
23490;SDS011;14683;50.038;8.078;2022-07-29T07:25:35;6.88;;;2.47;;
23490;SDS011;14683;50.038;8.078;2022-07-29T07:28:01;4.32;;;2.25;;
23490;SDS011;14683;50.038;8.078;2022-07-29T07:30:27;4.47;;;2.58;;
23490;SDS011;14683;50.038;8.078;2022-07-29T07:32:53;4.97;;;2.42;;
23490;SDS011;14683;50.038;8.078;2022-07-29T07:35:19;3.20;;;2.20;;
23490;SDS011;14683;50.038;8.078;2022-07-29T07:37:45;5.75;;;2.38;;
23490;SDS011;14683;50.038;8.078;2022-07-29T07:40:12;5.47;;;2.40;;
23490;SDS011;14683;50.038;8.078;2022-07-29T07:42:38;4.68;;;2.47;;
23490;SDS011;14683;50.038;8.078;2022-07-29T07:45:05;4.03;;;2.28;;
23490;SDS011;14683;50.038;8.078;2022-07-29T07:47:38;4.57;;;2.60;;
23490;SDS011;14683;50.038;8.078;2022-07-29T07:50:05;6.22;;;2.50;;
23490;SDS011;14683;50.038;8.078;2022-07-29T07:52:32;4.05;;;2.58;;
23490;SDS011;14683;50.038;8.078;2022-07-29T07:54:58;3.63;;;2.35;;
23490;SDS011;14683;50.038;8.078;2022-07-29T07:57:24;5.30;;;2.70;;
23490;SDS011;14683;50.038;8.078;2022-07-29T08:02:16;4.38;;;2.60;;
23490;SDS011;14683;50.038;8.078;2022-07-29T08:04:42;4.20;;;2.78;;
23490;SDS011;14683;50.038;8.078;2022-07-29T08:07:08;5.43;;;2.90;;
23490;SDS011;14683;50.038;8.078;2022-07-29T08:09:34;4.28;;;2.67;;
23490;SDS011;14683;50.038;8.078;2022-07-29T08:12:01;8.30;;;2.55;;
23490;SDS011;14683;50.038;8.078;2022-07-29T08:14:31;6.93;;;2.67;;
23490;SDS011;14683;50.038;8.078;2022-07-29T08:16:57;5.78;;;2.83;;
23490;SDS011;14683;50.038;8.078;2022-07-29T08:19:24;7.97;;;2.75;;
23490;SDS011;14683;50.038;8.078;2022-07-29T08:21:50;4.63;;;2.58;;
23490;SDS011;14683;50.038;8.078;2022-07-29T08:24:19;4.72;;;2.95;;
23490;SDS011;14683;50.038;8.078;2022-07-29T08:27:04;7.22;;;2.95;;
23490;SDS011;14683;50.038;8.078;2022-07-29T08:31:56;3.85;;;2.60;;
23490;SDS011;14683;50.038;8.078;2022-07-29T08:34:22;3.13;;;2.80;;
23490;SDS011;14683;50.038;8.078;2022-07-29T08:36:48;4.32;;;2.72;;
23490;SDS011;14683;50.038;8.078;2022-07-29T08:41:40;5.20;;;3.05;;
23490;SDS011;14683;50.038;8.078;2022-07-29T08:44:06;4.80;;;2.60;;
23490;SDS011;14683;50.038;8.078;2022-07-29T08:46:32;4.03;;;2.65;;
23490;SDS011;14683;50.038;8.078;2022-07-29T08:48:59;4.05;;;2.70;;
23490;SDS011;14683;50.038;8.078;2022-07-29T08:51:25;4.80;;;2.75;;
23490;SDS011;14683;50.038;8.078;2022-07-29T08:53:51;4.50;;;2.70;;
23490;SDS011;14683;50.038;8.078;2022-07-29T08:56:17;8.20;;;2.80;;
23490;SDS011;14683;50.038;8.078;2022-07-29T08:58:45;7.72;;;3.22;;
23490;SDS011;14683;50.038;8.078;2022-07-29T09:01:13;5.35;;;3.08;;
23490;SDS011;14683;50.038;8.078;2022-07-29T09:03:41;6.22;;;2.53;;
23490;SDS011;14683;50.038;8.078;2022-07-29T09:06:11;6.60;;;3.00;;
23490;SDS011;14683;50.038;8.078;2022-07-29T09:08:39;8.15;;;3.00;;
23490;SDS011;14683;50.038;8.078;2022-07-29T09:11:05;7.75;;;2.70;;
23490;SDS011;14683;50.038;8.078;2022-07-29T09:13:33;7.57;;;2.85;;
23490;SDS011;14683;50.038;8.078;2022-07-29T09:15:59;3.90;;;2.83;;
23490;SDS011;14683;50.038;8.078;2022-07-29T09:18:36;9.77;;;2.95;;
23490;SDS011;14683;50.038;8.078;2022-07-29T09:21:02;2.53;;;2.05;;
23490;SDS011;14683;50.038;8.078;2022-07-29T09:24:04;5.60;;;2.70;;
23490;SDS011;14683;50.038;8.078;2022-07-29T09:26:34;5.95;;;2.78;;
23490;SDS011;14683;50.038;8.078;2022-07-29T09:29:09;4.07;;;2.72;;
23490;SDS011;14683;50.038;8.078;2022-07-29T09:31:40;5.95;;;2.42;;
23490;SDS011;14683;50.038;8.078;2022-07-29T09:34:07;2.65;;;2.45;;
23490;SDS011;14683;50.038;8.078;2022-07-29T09:36:53;5.93;;;2.63;;
23490;SDS011;14683;50.038;8.078;2022-07-29T09:39:26;5.57;;;2.85;;
23490;SDS011;14683;50.038;8.078;2022-07-29T09:41:56;6.10;;;2.78;;
23490;SDS011;14683;50.038;8.078;2022-07-29T09:44:23;6.22;;;2.40;;
23490;SDS011;14683;50.038;8.078;2022-07-29T09:49:35;5.28;;;2.80;;
23490;SDS011;14683;50.038;8.078;2022-07-29T09:52:06;6.35;;;3.10;;
23490;SDS011;14683;50.038;8.078;2022-07-29T09:54:34;5.78;;;2.80;;
23490;SDS011;14683;50.038;8.078;2022-07-29T09:57:06;5.13;;;3.03;;
23490;SDS011;14683;50.038;8.078;2022-07-29T09:59:38;4.05;;;2.70;;
23490;SDS011;14683;50.038;8.078;2022-07-29T10:02:13;5.50;;;3.00;;
23490;SDS011;14683;50.038;8.078;2022-07-29T10:04:40;5.38;;;2.60;;
23490;SDS011;14683;50.038;8.078;2022-07-29T10:10:18;6.40;;;3.13;;
23490;SDS011;14683;50.038;8.078;2022-07-29T10:12:56;4.18;;;2.67;;
23490;SDS011;14683;50.038;8.078;2022-07-29T10:15:24;3.28;;;2.80;;
23490;SDS011;14683;50.038;8.078;2022-07-29T10:17:52;8.80;;;3.20;;
23490;SDS011;14683;50.038;8.078;2022-07-29T10:20:19;6.45;;;2.78;;
23490;SDS011;14683;50.038;8.078;2022-07-29T10:22:46;3.20;;;2.38;;
23490;SDS011;14683;50.038;8.078;2022-07-29T10:25:13;6.22;;;2.80;;
23490;SDS011;14683;50.038;8.078;2022-07-29T10:27:40;5.05;;;2.70;;
23490;SDS011;14683;50.038;8.078;2022-07-29T10:30:06;3.78;;;2.78;;
23490;SDS011;14683;50.038;8.078;2022-07-29T10:38:12;4.30;;;2.60;;
23490;SDS011;14683;50.038;8.078;2022-07-29T10:44:05;4.18;;;2.95;;
23490;SDS011;14683;50.038;8.078;2022-07-29T10:46:37;4.25;;;2.78;;
23490;SDS011;14683;50.038;8.078;2022-07-29T10:49:07;6.88;;;3.00;;
23490;SDS011;14683;50.038;8.078;2022-07-29T10:54:36;3.80;;;2.55;;
23490;SDS011;14683;50.038;8.078;2022-07-29T10:57:15;3.33;;;2.60;;
23490;SDS011;14683;50.038;8.078;2022-07-29T10:59:49;3.78;;;2.53;;
23490;SDS011;14683;50.038;8.078;2022-07-29T11:10:43;5.40;;;2.83;;
23490;SDS011;14683;50.038;8.078;2022-07-29T11:13:09;4.25;;;2.67;;
23490;SDS011;14683;50.038;8.078;2022-07-29T11:18:20;5.65;;;2.80;;
23490;SDS011;14683;50.038;8.078;2022-07-29T11:23:37;5.53;;;2.85;;
23490;SDS011;14683;50.038;8.078;2022-07-29T11:28:37;4.40;;;2.50;;
23490;SDS011;14683;50.038;8.078;2022-07-29T11:31:08;4.85;;;2.90;;
23490;SDS011;14683;50.038;8.078;2022-07-29T11:33:35;6.47;;;3.25;;
23490;SDS011;14683;50.038;8.078;2022-07-29T11:36:08;4.35;;;2.90;;
23490;SDS011;14683;50.038;8.078;2022-07-29T11:38:41;3.38;;;2.63;;
23490;SDS011;14683;50.038;8.078;2022-07-29T11:41:20;3.22;;;2.92;;
23490;SDS011;14683;50.038;8.078;2022-07-29T11:43:48;3.22;;;2.83;;
23490;SDS011;14683;50.038;8.078;2022-07-29T11:49:18;4.97;;;3.08;;
23490;SDS011;14683;50.038;8.078;2022-07-29T11:51:55;3.63;;;2.58;;
23490;SDS011;14683;50.038;8.078;2022-07-29T11:54:32;3.95;;;2.55;;
23490;SDS011;14683;50.038;8.078;2022-07-29T11:56:59;4.22;;;2.88;;
23490;SDS011;14683;50.038;8.078;2022-07-29T11:59:26;4.28;;;2.70;;
23490;SDS011;14683;50.038;8.078;2022-07-29T12:01:56;4.68;;;2.90;;
23490;SDS011;14683;50.038;8.078;2022-07-29T12:04:25;5.22;;;3.20;;
23490;SDS011;14683;50.038;8.078;2022-07-29T12:06:55;3.38;;;2.90;;
23490;SDS011;14683;50.038;8.078;2022-07-29T12:09:22;4.78;;;2.50;;
23490;SDS011;14683;50.038;8.078;2022-07-29T12:11:55;6.40;;;3.08;;
23490;SDS011;14683;50.038;8.078;2022-07-29T12:16:51;3.40;;;2.70;;
23490;SDS011;14683;50.038;8.078;2022-07-29T12:19:18;4.00;;;2.92;;
23490;SDS011;14683;50.038;8.078;2022-07-29T12:24:13;6.45;;;2.92;;
23490;SDS011;14683;50.038;8.078;2022-07-29T12:26:58;5.65;;;2.50;;
23490;SDS011;14683;50.038;8.078;2022-07-29T12:29:25;5.30;;;2.75;;
23490;SDS011;14683;50.038;8.078;2022-07-29T12:31:55;5.53;;;2.97;;
23490;SDS011;14683;50.038;8.078;2022-07-29T12:34:22;6.95;;;2.75;;
23490;SDS011;14683;50.038;8.078;2022-07-29T12:36:49;15.35;;;3.05;;
23490;SDS011;14683;50.038;8.078;2022-07-29T12:39:16;3.10;;;2.70;;
23490;SDS011;14683;50.038;8.078;2022-07-29T12:41:43;3.88;;;2.88;;
23490;SDS011;14683;50.038;8.078;2022-07-29T12:44:09;6.72;;;3.03;;
23490;SDS011;14683;50.038;8.078;2022-07-29T12:46:36;3.38;;;2.72;;
23490;SDS011;14683;50.038;8.078;2022-07-29T12:49:03;8.10;;;3.03;;
23490;SDS011;14683;50.038;8.078;2022-07-29T12:51:30;4.07;;;2.72;;
23490;SDS011;14683;50.038;8.078;2022-07-29T12:54:02;6.45;;;2.70;;
23490;SDS011;14683;50.038;8.078;2022-07-29T12:56:29;6.15;;;2.72;;
23490;SDS011;14683;50.038;8.078;2022-07-29T12:58:55;6.20;;;3.20;;
23490;SDS011;14683;50.038;8.078;2022-07-29T13:06:31;3.08;;;1.90;;
23490;SDS011;14683;50.038;8.078;2022-07-29T13:11:33;2.63;;;1.83;;
23490;SDS011;14683;50.038;8.078;2022-07-29T13:14:01;3.35;;;1.88;;
23490;SDS011;14683;50.038;8.078;2022-07-29T13:16:27;1.42;;;1.40;;
23490;SDS011;14683;50.038;8.078;2022-07-29T13:19:03;3.08;;;1.70;;
23490;SDS011;14683;50.038;8.078;2022-07-29T13:21:30;2.13;;;1.50;;
23490;SDS011;14683;50.038;8.078;2022-07-29T13:23:56;2.78;;;2.08;;
23490;SDS011;14683;50.038;8.078;2022-07-29T13:26:22;2.00;;;1.80;;
23490;SDS011;14683;50.038;8.078;2022-07-29T13:31:15;2.63;;;1.73;;
23490;SDS011;14683;50.038;8.078;2022-07-29T13:33:41;1.98;;;1.88;;
23490;SDS011;14683;50.038;8.078;2022-07-29T13:36:07;3.03;;;2.45;;
23490;SDS011;14683;50.038;8.078;2022-07-29T13:40:59;4.07;;;2.20;;
23490;SDS011;14683;50.038;8.078;2022-07-29T13:43:26;2.75;;;2.38;;
23490;SDS011;14683;50.038;8.078;2022-07-29T13:45:52;3.63;;;2.13;;
23490;SDS011;14683;50.038;8.078;2022-07-29T13:48:18;3.58;;;2.60;;
23490;SDS011;14683;50.038;8.078;2022-07-29T13:53:11;3.83;;;1.98;;
23490;SDS011;14683;50.038;8.078;2022-07-29T13:58:03;2.40;;;2.20;;
23490;SDS011;14683;50.038;8.078;2022-07-29T14:00:29;3.03;;;2.63;;
23490;SDS011;14683;50.038;8.078;2022-07-29T14:02:55;4.90;;;2.17;;
23490;SDS011;14683;50.038;8.078;2022-07-29T14:05:21;2.65;;;2.45;;
23490;SDS011;14683;50.038;8.078;2022-07-29T14:07:47;5.70;;;2.28;;
23490;SDS011;14683;50.038;8.078;2022-07-29T14:10:13;2.83;;;2.63;;
23490;SDS011;14683;50.038;8.078;2022-07-29T14:15:07;5.65;;;2.65;;
23490;SDS011;14683;50.038;8.078;2022-07-29T14:17:34;4.00;;;2.55;;
23490;SDS011;14683;50.038;8.078;2022-07-29T14:20:00;4.22;;;2.47;;
23490;SDS011;14683;50.038;8.078;2022-07-29T14:22:26;4.90;;;2.42;;
23490;SDS011;14683;50.038;8.078;2022-07-29T14:24:52;3.78;;;2.80;;
23490;SDS011;14683;50.038;8.078;2022-07-29T14:27:18;4.15;;;2.60;;
23490;SDS011;14683;50.038;8.078;2022-07-29T14:32:10;7.38;;;3.25;;
23490;SDS011;14683;50.038;8.078;2022-07-29T14:34:37;5.40;;;2.90;;
23490;SDS011;14683;50.038;8.078;2022-07-29T14:37:03;4.03;;;2.95;;
23490;SDS011;14683;50.038;8.078;2022-07-29T14:39:31;3.83;;;3.03;;
23490;SDS011;14683;50.038;8.078;2022-07-29T14:41:57;3.65;;;3.10;;
23490;SDS011;14683;50.038;8.078;2022-07-29T14:44:23;3.45;;;2.92;;
23490;SDS011;14683;50.038;8.078;2022-07-29T14:46:49;4.80;;;3.00;;
23490;SDS011;14683;50.038;8.078;2022-07-29T14:49:15;8.48;;;3.45;;
23490;SDS011;14683;50.038;8.078;2022-07-29T14:51:41;5.35;;;3.03;;
23490;SDS011;14683;50.038;8.078;2022-07-29T14:54:07;5.03;;;3.05;;
23490;SDS011;14683;50.038;8.078;2022-07-29T14:56:34;4.70;;;3.30;;
23490;SDS011;14683;50.038;8.078;2022-07-29T14:59:00;3.97;;;3.30;;
23490;SDS011;14683;50.038;8.078;2022-07-29T15:03:52;3.75;;;3.35;;
23490;SDS011;14683;50.038;8.078;2022-07-29T15:06:18;4.80;;;3.13;;
23490;SDS011;14683;50.038;8.078;2022-07-29T15:08:44;4.80;;;3.10;;
23490;SDS011;14683;50.038;8.078;2022-07-29T15:11:10;4.45;;;2.90;;
23490;SDS011;14683;50.038;8.078;2022-07-29T15:13:36;4.03;;;3.13;;
23490;SDS011;14683;50.038;8.078;2022-07-29T15:16:02;3.83;;;2.90;;
23490;SDS011;14683;50.038;8.078;2022-07-29T15:20:54;5.20;;;3.60;;
23490;SDS011;14683;50.038;8.078;2022-07-29T15:23:20;4.07;;;3.40;;
23490;SDS011;14683;50.038;8.078;2022-07-29T15:25:46;5.47;;;3.55;;
23490;SDS011;14683;50.038;8.078;2022-07-29T15:28:12;4.95;;;3.67;;
23490;SDS011;14683;50.038;8.078;2022-07-29T15:30:38;6.28;;;3.30;;
23490;SDS011;14683;50.038;8.078;2022-07-29T15:33:07;3.47;;;3.17;;
23490;SDS011;14683;50.038;8.078;2022-07-29T15:35:35;6.88;;;3.47;;
23490;SDS011;14683;50.038;8.078;2022-07-29T15:38:02;3.70;;;3.10;;
23490;SDS011;14683;50.038;8.078;2022-07-29T15:42:54;3.88;;;3.13;;
23490;SDS011;14683;50.038;8.078;2022-07-29T15:47:46;3.53;;;3.22;;
23490;SDS011;14683;50.038;8.078;2022-07-29T15:50:12;5.20;;;3.40;;
23490;SDS011;14683;50.038;8.078;2022-07-29T15:52:41;5.95;;;3.63;;
23490;SDS011;14683;50.038;8.078;2022-07-29T15:55:07;4.97;;;3.30;;
23490;SDS011;14683;50.038;8.078;2022-07-29T15:57:34;5.85;;;3.10;;
23490;SDS011;14683;50.038;8.078;2022-07-29T16:00:00;6.47;;;2.95;;
23490;SDS011;14683;50.038;8.078;2022-07-29T16:02:26;5.32;;;3.20;;
23490;SDS011;14683;50.038;8.078;2022-07-29T16:04:52;7.18;;;3.08;;
23490;SDS011;14683;50.038;8.078;2022-07-29T16:07:18;3.25;;;2.85;;
23490;SDS011;14683;50.038;8.078;2022-07-29T16:09:44;3.45;;;2.88;;
23490;SDS011;14683;50.038;8.078;2022-07-29T16:12:10;3.47;;;3.17;;
23490;SDS011;14683;50.038;8.078;2022-07-29T16:14:36;5.95;;;3.13;;
23490;SDS011;14683;50.038;8.078;2022-07-29T16:17:02;3.90;;;2.85;;
23490;SDS011;14683;50.038;8.078;2022-07-29T16:19:29;3.90;;;3.20;;
23490;SDS011;14683;50.038;8.078;2022-07-29T16:21:58;3.72;;;3.38;;
23490;SDS011;14683;50.038;8.078;2022-07-29T16:24:24;3.92;;;3.22;;
23490;SDS011;14683;50.038;8.078;2022-07-29T16:26:54;3.67;;;2.80;;
23490;SDS011;14683;50.038;8.078;2022-07-29T16:29:21;3.17;;;2.80;;
23490;SDS011;14683;50.038;8.078;2022-07-29T16:31:47;6.43;;;3.40;;
23490;SDS011;14683;50.038;8.078;2022-07-29T16:34:13;4.05;;;2.78;;
23490;SDS011;14683;50.038;8.078;2022-07-29T16:36:39;4.22;;;3.10;;
23490;SDS011;14683;50.038;8.078;2022-07-29T16:39:05;7.97;;;3.28;;
23490;SDS011;14683;50.038;8.078;2022-07-29T16:41:31;13.25;;;4.38;;
23490;SDS011;14683;50.038;8.078;2022-07-29T16:43:57;10.35;;;3.97;;
23490;SDS011;14683;50.038;8.078;2022-07-29T16:48:49;9.30;;;3.78;;
23490;SDS011;14683;50.038;8.078;2022-07-29T16:51:15;5.53;;;3.78;;
23490;SDS011;14683;50.038;8.078;2022-07-29T16:53:41;4.00;;;3.60;;
23490;SDS011;14683;50.038;8.078;2022-07-29T16:56:08;5.65;;;3.30;;
23490;SDS011;14683;50.038;8.078;2022-07-29T16:58:35;5.78;;;3.90;;
23490;SDS011;14683;50.038;8.078;2022-07-29T17:01:01;4.38;;;3.35;;
23490;SDS011;14683;50.038;8.078;2022-07-29T17:03:27;15.60;;;10.73;;
23490;SDS011;14683;50.038;8.078;2022-07-29T17:05:54;8.40;;;5.10;;
23490;SDS011;14683;50.038;8.078;2022-07-29T17:08:20;4.72;;;3.97;;
23490;SDS011;14683;50.038;8.078;2022-07-29T17:10:46;6.25;;;4.00;;
23490;SDS011;14683;50.038;8.078;2022-07-29T17:15:39;5.78;;;3.95;;
23490;SDS011;14683;50.038;8.078;2022-07-29T17:18:07;4.80;;;3.60;;
23490;SDS011;14683;50.038;8.078;2022-07-29T17:20:33;5.72;;;4.00;;
23490;SDS011;14683;50.038;8.078;2022-07-29T17:23:01;8.15;;;3.88;;
23490;SDS011;14683;50.038;8.078;2022-07-29T17:25:27;5.53;;;3.75;;
23490;SDS011;14683;50.038;8.078;2022-07-29T17:27:53;7.03;;;4.03;;
23490;SDS011;14683;50.038;8.078;2022-07-29T17:30:20;7.70;;;4.45;;
23490;SDS011;14683;50.038;8.078;2022-07-29T17:32:47;6.38;;;4.15;;
23490;SDS011;14683;50.038;8.078;2022-07-29T17:35:13;6.00;;;4.35;;
23490;SDS011;14683;50.038;8.078;2022-07-29T17:37:57;8.48;;;4.28;;
23490;SDS011;14683;50.038;8.078;2022-07-29T17:40:23;5.35;;;4.57;;
23490;SDS011;14683;50.038;8.078;2022-07-29T17:42:50;9.40;;;6.80;;
23490;SDS011;14683;50.038;8.078;2022-07-29T17:45:16;12.50;;;6.55;;
23490;SDS011;14683;50.038;8.078;2022-07-29T17:47:42;6.22;;;5.63;;
23490;SDS011;14683;50.038;8.078;2022-07-29T17:50:09;5.72;;;4.20;;
23490;SDS011;14683;50.038;8.078;2022-07-29T17:55:01;5.55;;;4.75;;
23490;SDS011;14683;50.038;8.078;2022-07-29T17:57:27;5.20;;;4.70;;
23490;SDS011;14683;50.038;8.078;2022-07-29T17:59:53;4.65;;;3.83;;
23490;SDS011;14683;50.038;8.078;2022-07-29T18:02:19;5.13;;;3.72;;
23490;SDS011;14683;50.038;8.078;2022-07-29T18:04:45;6.15;;;4.70;;
23490;SDS011;14683;50.038;8.078;2022-07-29T18:07:11;5.95;;;4.82;;
23490;SDS011;14683;50.038;8.078;2022-07-29T18:09:37;6.65;;;4.03;;
23490;SDS011;14683;50.038;8.078;2022-07-29T18:12:03;6.13;;;4.25;;
23490;SDS011;14683;50.038;8.078;2022-07-29T18:16:55;4.55;;;4.15;;
23490;SDS011;14683;50.038;8.078;2022-07-29T18:19:21;4.63;;;4.18;;
23490;SDS011;14683;50.038;8.078;2022-07-29T18:21:47;5.25;;;4.25;;
23490;SDS011;14683;50.038;8.078;2022-07-29T18:24:13;6.35;;;4.47;;
23490;SDS011;14683;50.038;8.078;2022-07-29T18:26:39;4.63;;;4.15;;
23490;SDS011;14683;50.038;8.078;2022-07-29T18:29:05;5.80;;;4.68;;
23490;SDS011;14683;50.038;8.078;2022-07-29T18:31:31;5.20;;;4.70;;
23490;SDS011;14683;50.038;8.078;2022-07-29T18:33:57;7.03;;;4.57;;
23490;SDS011;14683;50.038;8.078;2022-07-29T18:36:23;4.53;;;3.88;;
23490;SDS011;14683;50.038;8.078;2022-07-29T18:38:49;5.68;;;4.22;;
23490;SDS011;14683;50.038;8.078;2022-07-29T18:41:15;5.38;;;3.90;;
23490;SDS011;14683;50.038;8.078;2022-07-29T18:43:41;4.90;;;4.50;;
23490;SDS011;14683;50.038;8.078;2022-07-29T18:46:07;5.63;;;4.45;;
23490;SDS011;14683;50.038;8.078;2022-07-29T18:48:33;7.30;;;4.60;;
23490;SDS011;14683;50.038;8.078;2022-07-29T18:50:59;8.15;;;5.07;;
23490;SDS011;14683;50.038;8.078;2022-07-29T18:53:26;8.32;;;4.88;;
23490;SDS011;14683;50.038;8.078;2022-07-29T18:55:52;5.45;;;4.80;;
23490;SDS011;14683;50.038;8.078;2022-07-29T18:58:18;6.70;;;4.57;;
23490;SDS011;14683;50.038;8.078;2022-07-29T19:00:44;7.85;;;4.65;;
23490;SDS011;14683;50.038;8.078;2022-07-29T19:03:10;4.40;;;3.80;;
23490;SDS011;14683;50.038;8.078;2022-07-29T19:05:36;5.63;;;3.90;;
23490;SDS011;14683;50.038;8.078;2022-07-29T19:08:02;3.88;;;3.00;;
23490;SDS011;14683;50.038;8.078;2022-07-29T19:10:28;4.78;;;3.80;;
23490;SDS011;14683;50.038;8.078;2022-07-29T19:15:21;6.47;;;3.80;;
23490;SDS011;14683;50.038;8.078;2022-07-29T19:17:47;6.88;;;4.25;;
23490;SDS011;14683;50.038;8.078;2022-07-29T19:20:13;6.20;;;3.95;;
23490;SDS011;14683;50.038;8.078;2022-07-29T19:22:40;6.72;;;4.07;;
23490;SDS011;14683;50.038;8.078;2022-07-29T19:25:06;4.53;;;4.13;;
23490;SDS011;14683;50.038;8.078;2022-07-29T19:27:32;4.07;;;3.67;;
23490;SDS011;14683;50.038;8.078;2022-07-29T19:29:58;4.68;;;4.03;;
23490;SDS011;14683;50.038;8.078;2022-07-29T19:32:24;4.90;;;4.22;;
23490;SDS011;14683;50.038;8.078;2022-07-29T19:34:51;5.65;;;4.18;;
23490;SDS011;14683;50.038;8.078;2022-07-29T19:37:36;4.78;;;4.35;;
23490;SDS011;14683;50.038;8.078;2022-07-29T19:40:02;4.72;;;4.25;;
23490;SDS011;14683;50.038;8.078;2022-07-29T19:42:28;5.10;;;3.72;;
23490;SDS011;14683;50.038;8.078;2022-07-29T19:44:54;5.53;;;3.70;;
